sensor_id;sensor_type;location;lat;lon;timestamp;temperature;humidity
37356;DHT22;48747;50.250;18.848;2023-07-30T00:01:03;20.10;99.90
37356;DHT22;48747;50.250;18.848;2023-07-30T00:03:06;20.10;99.90
37356;DHT22;48747;50.250;18.848;2023-07-30T00:05:09;20.00;99.90
37356;DHT22;48747;50.250;18.848;2023-07-30T00:07:13;20.00;99.90
37356;DHT22;48747;50.250;18.848;2023-07-30T00:09:16;20.00;99.90
37356;DHT22;48747;50.250;18.848;2023-07-30T00:11:19;20.00;99.90
37356;DHT22;48747;50.250;18.848;2023-07-30T00:13:22;19.90;99.90
37356;DHT22;48747;50.250;18.848;2023-07-30T00:15:25;19.80;99.90
37356;DHT22;48747;50.250;18.848;2023-07-30T00:17:28;19.80;99.90
37356;DHT22;48747;50.250;18.848;2023-07-30T00:19:31;19.80;99.90
37356;DHT22;48747;50.250;18.848;2023-07-30T00:21:34;19.70;99.90
37356;DHT22;48747;50.250;18.848;2023-07-30T00:23:37;19.70;99.90
37356;DHT22;48747;50.250;18.848;2023-07-30T00:25:40;19.70;99.90
37356;DHT22;48747;50.250;18.848;2023-07-30T00:27:43;19.60;99.90
37356;DHT22;48747;50.250;18.848;2023-07-30T00:29:46;19.60;99.90
37356;DHT22;48747;50.250;18.848;2023-07-30T00:31:49;19.60;99.90
37356;DHT22;48747;50.250;18.848;2023-07-30T00:33:52;19.60;99.90
37356;DHT22;48747;50.250;18.848;2023-07-30T00:35:55;19.50;99.90
37356;DHT22;48747;50.250;18.848;2023-07-30T00:37:58;19.50;99.90
37356;DHT22;48747;50.250;18.848;2023-07-30T00:40:02;19.50;99.90
37356;DHT22;48747;50.250;18.848;2023-07-30T00:42:06;19.50;99.90
37356;DHT22;48747;50.250;18.848;2023-07-30T00:44:09;19.40;99.90
37356;DHT22;48747;50.250;18.848;2023-07-30T00:46:12;19.40;99.90
37356;DHT22;48747;50.250;18.848;2023-07-30T00:48:16;19.40;99.90
37356;DHT22;48747;50.250;18.848;2023-07-30T00:50:19;19.40;99.90
37356;DHT22;48747;50.250;18.848;2023-07-30T00:52:23;19.30;99.90
37356;DHT22;48747;50.250;18.848;2023-07-30T00:54:27;19.30;99.90
37356;DHT22;48747;50.250;18.848;2023-07-30T00:56:30;19.30;99.90
37356;DHT22;48747;50.250;18.848;2023-07-30T00:58:33;19.30;99.90
37356;DHT22;48747;50.250;18.848;2023-07-30T01:00:38;19.30;99.90
37356;DHT22;48747;50.250;18.848;2023-07-30T01:02:41;19.20;99.90
37356;DHT22;48747;50.250;18.848;2023-07-30T01:04:44;19.20;99.90
37356;DHT22;48747;50.250;18.848;2023-07-30T01:06:48;19.10;99.90
37356;DHT22;48747;50.250;18.848;2023-07-30T01:08:51;19.00;99.90
37356;DHT22;48747;50.250;18.848;2023-07-30T01:10:54;19.00;99.90
37356;DHT22;48747;50.250;18.848;2023-07-30T01:13:00;19.00;99.90
37356;DHT22;48747;50.250;18.848;2023-07-30T01:15:04;18.90;99.90
37356;DHT22;48747;50.250;18.848;2023-07-30T01:17:08;18.80;99.90
37356;DHT22;48747;50.250;18.848;2023-07-30T01:19:11;18.70;99.90
37356;DHT22;48747;50.250;18.848;2023-07-30T01:21:14;18.60;99.90
37356;DHT22;48747;50.250;18.848;2023-07-30T01:23:18;18.60;99.90
37356;DHT22;48747;50.250;18.848;2023-07-30T01:25:22;18.60;99.90
37356;DHT22;48747;50.250;18.848;2023-07-30T01:27:29;18.50;99.90
37356;DHT22;48747;50.250;18.848;2023-07-30T01:31:54;18.40;99.90
37356;DHT22;48747;50.250;18.848;2023-07-30T01:33:56;18.40;99.90
37356;DHT22;48747;50.250;18.848;2023-07-30T01:36:01;18.40;99.90
37356;DHT22;48747;50.250;18.848;2023-07-30T01:38:06;18.30;99.90
37356;DHT22;48747;50.250;18.848;2023-07-30T01:40:11;18.20;99.90
37356;DHT22;48747;50.250;18.848;2023-07-30T01:42:14;18.20;99.90
37356;DHT22;48747;50.250;18.848;2023-07-30T01:44:17;18.20;99.90
37356;DHT22;48747;50.250;18.848;2023-07-30T01:46:20;18.20;99.90
37356;DHT22;48747;50.250;18.848;2023-07-30T01:48:23;18.20;99.90
37356;DHT22;48747;50.250;18.848;2023-07-30T01:50:26;18.20;99.90
37356;DHT22;48747;50.250;18.848;2023-07-30T01:52:29;18.20;99.90
37356;DHT22;48747;50.250;18.848;2023-07-30T01:54:32;18.20;99.90
37356;DHT22;48747;50.250;18.848;2023-07-30T01:56:35;18.30;99.90
37356;DHT22;48747;50.250;18.848;2023-07-30T01:58:38;18.20;99.90
37356;DHT22;48747;50.250;18.848;2023-07-30T02:00:41;18.20;99.90
37356;DHT22;48747;50.250;18.848;2023-07-30T02:02:44;18.20;99.90
37356;DHT22;48747;50.250;18.848;2023-07-30T02:04:47;18.20;99.90
37356;DHT22;48747;50.250;18.848;2023-07-30T02:06:50;18.10;99.90
37356;DHT22;48747;50.250;18.848;2023-07-30T02:08:53;18.00;99.90
37356;DHT22;48747;50.250;18.848;2023-07-30T02:10:58;17.90;99.90
37356;DHT22;48747;50.250;18.848;2023-07-30T02:13:02;17.90;99.90
37356;DHT22;48747;50.250;18.848;2023-07-30T02:15:05;17.90;99.90
37356;DHT22;48747;50.250;18.848;2023-07-30T02:17:09;17.80;99.90
37356;DHT22;48747;50.250;18.848;2023-07-30T02:19:12;17.80;99.90
37356;DHT22;48747;50.250;18.848;2023-07-30T02:21:15;17.80;99.90
37356;DHT22;48747;50.250;18.848;2023-07-30T02:23:18;17.70;99.90
37356;DHT22;48747;50.250;18.848;2023-07-30T02:25:21;17.70;99.90
37356;DHT22;48747;50.250;18.848;2023-07-30T02:27:24;17.70;99.90
37356;DHT22;48747;50.250;18.848;2023-07-30T02:29:28;17.60;99.90
37356;DHT22;48747;50.250;18.848;2023-07-30T02:31:33;17.60;99.90
37356;DHT22;48747;50.250;18.848;2023-07-30T02:33:35;17.60;99.90
37356;DHT22;48747;50.250;18.848;2023-07-30T02:35:38;17.60;99.90
37356;DHT22;48747;50.250;18.848;2023-07-30T02:37:42;17.50;99.90
37356;DHT22;48747;50.250;18.848;2023-07-30T02:39:45;17.50;99.90
37356;DHT22;48747;50.250;18.848;2023-07-30T02:41:48;17.50;99.90
37356;DHT22;48747;50.250;18.848;2023-07-30T02:43:51;17.50;99.90
37356;DHT22;48747;50.250;18.848;2023-07-30T02:45:54;17.50;99.90
37356;DHT22;48747;50.250;18.848;2023-07-30T02:47:57;17.50;99.90
37356;DHT22;48747;50.250;18.848;2023-07-30T02:50:00;17.50;99.90
37356;DHT22;48747;50.250;18.848;2023-07-30T02:52:03;17.50;99.90
37356;DHT22;48747;50.250;18.848;2023-07-30T02:54:07;17.40;99.90
37356;DHT22;48747;50.250;18.848;2023-07-30T02:56:11;17.40;99.90
37356;DHT22;48747;50.250;18.848;2023-07-30T02:58:14;17.30;99.90
37356;DHT22;48747;50.250;18.848;2023-07-30T03:00:18;17.30;99.90
37356;DHT22;48747;50.250;18.848;2023-07-30T03:02:21;17.30;99.90
37356;DHT22;48747;50.250;18.848;2023-07-30T03:04:24;17.30;99.90
37356;DHT22;48747;50.250;18.848;2023-07-30T03:06:27;17.30;99.90
37356;DHT22;48747;50.250;18.848;2023-07-30T03:08:30;17.30;99.90
37356;DHT22;48747;50.250;18.848;2023-07-30T03:10:33;17.30;99.90
37356;DHT22;48747;50.250;18.848;2023-07-30T03:12:36;17.30;99.90
37356;DHT22;48747;50.250;18.848;2023-07-30T03:14:39;17.20;99.90
37356;DHT22;48747;50.250;18.848;2023-07-30T03:16:42;17.30;99.90
37356;DHT22;48747;50.250;18.848;2023-07-30T03:18:45;17.20;99.90
37356;DHT22;48747;50.250;18.848;2023-07-30T03:20:48;17.20;99.90
37356;DHT22;48747;50.250;18.848;2023-07-30T03:22:51;17.20;99.90
37356;DHT22;48747;50.250;18.848;2023-07-30T03:24:54;17.30;99.90
37356;DHT22;48747;50.250;18.848;2023-07-30T03:26:57;17.30;99.90
37356;DHT22;48747;50.250;18.848;2023-07-30T03:29:00;17.30;99.90
37356;DHT22;48747;50.250;18.848;2023-07-30T03:31:03;17.30;99.90
37356;DHT22;48747;50.250;18.848;2023-07-30T03:33:08;17.40;99.90
37356;DHT22;48747;50.250;18.848;2023-07-30T03:35:10;17.40;99.90
37356;DHT22;48747;50.250;18.848;2023-07-30T03:37:13;17.30;99.90
37356;DHT22;48747;50.250;18.848;2023-07-30T03:39:16;17.30;99.90
37356;DHT22;48747;50.250;18.848;2023-07-30T03:41:19;17.30;99.90
37356;DHT22;48747;50.250;18.848;2023-07-30T03:43:23;17.30;99.90
37356;DHT22;48747;50.250;18.848;2023-07-30T03:45:26;17.30;99.90
37356;DHT22;48747;50.250;18.848;2023-07-30T03:47:29;17.20;99.90
37356;DHT22;48747;50.250;18.848;2023-07-30T03:49:32;17.30;99.90
37356;DHT22;48747;50.250;18.848;2023-07-30T03:51:35;17.30;99.90
37356;DHT22;48747;50.250;18.848;2023-07-30T03:53:40;17.30;99.90
37356;DHT22;48747;50.250;18.848;2023-07-30T03:55:44;17.20;99.90
37356;DHT22;48747;50.250;18.848;2023-07-30T03:57:47;17.20;99.90
37356;DHT22;48747;50.250;18.848;2023-07-30T03:59:50;17.20;99.90
37356;DHT22;48747;50.250;18.848;2023-07-30T04:01:53;17.20;99.90
37356;DHT22;48747;50.250;18.848;2023-07-30T04:03:57;17.30;99.90
37356;DHT22;48747;50.250;18.848;2023-07-30T04:06:00;17.30;99.90
37356;DHT22;48747;50.250;18.848;2023-07-30T04:08:03;17.30;99.90
37356;DHT22;48747;50.250;18.848;2023-07-30T04:10:06;17.30;99.90
37356;DHT22;48747;50.250;18.848;2023-07-30T04:12:10;17.30;99.90
37356;DHT22;48747;50.250;18.848;2023-07-30T04:14:13;17.20;99.90
37356;DHT22;48747;50.250;18.848;2023-07-30T04:16:16;17.20;99.90
37356;DHT22;48747;50.250;18.848;2023-07-30T04:18:19;17.20;99.90
37356;DHT22;48747;50.250;18.848;2023-07-30T04:20:22;17.30;99.90
37356;DHT22;48747;50.250;18.848;2023-07-30T04:22:25;17.50;99.90
37356;DHT22;48747;50.250;18.848;2023-07-30T04:24:28;17.60;99.90
37356;DHT22;48747;50.250;18.848;2023-07-30T04:26:31;17.70;99.90
37356;DHT22;48747;50.250;18.848;2023-07-30T04:28:34;17.70;99.90
37356;DHT22;48747;50.250;18.848;2023-07-30T04:30:37;17.80;99.90
37356;DHT22;48747;50.250;18.848;2023-07-30T04:32:40;17.80;99.90
37356;DHT22;48747;50.250;18.848;2023-07-30T04:34:43;17.80;99.90
37356;DHT22;48747;50.250;18.848;2023-07-30T04:36:46;17.90;99.90
37356;DHT22;48747;50.250;18.848;2023-07-30T04:38:49;17.90;99.90
37356;DHT22;48747;50.250;18.848;2023-07-30T04:40:52;17.90;99.90
37356;DHT22;48747;50.250;18.848;2023-07-30T04:42:55;17.90;99.90
37356;DHT22;48747;50.250;18.848;2023-07-30T04:44:58;17.90;99.90
37356;DHT22;48747;50.250;18.848;2023-07-30T04:47:01;18.00;99.90
37356;DHT22;48747;50.250;18.848;2023-07-30T04:49:04;18.10;99.90
37356;DHT22;48747;50.250;18.848;2023-07-30T04:51:08;18.20;99.90
37356;DHT22;48747;50.250;18.848;2023-07-30T04:53:11;18.30;99.90
37356;DHT22;48747;50.250;18.848;2023-07-30T04:55:14;18.40;99.90
37356;DHT22;48747;50.250;18.848;2023-07-30T04:57:17;18.50;99.90
37356;DHT22;48747;50.250;18.848;2023-07-30T04:59:20;18.60;99.90
37356;DHT22;48747;50.250;18.848;2023-07-30T05:01:24;18.60;99.90
37356;DHT22;48747;50.250;18.848;2023-07-30T05:03:27;18.60;99.90
37356;DHT22;48747;50.250;18.848;2023-07-30T05:05:32;18.60;99.90
37356;DHT22;48747;50.250;18.848;2023-07-30T05:07:35;18.70;99.90
37356;DHT22;48747;50.250;18.848;2023-07-30T05:09:38;18.80;99.90
37356;DHT22;48747;50.250;18.848;2023-07-30T05:11:41;18.80;99.90
37356;DHT22;48747;50.250;18.848;2023-07-30T05:13:44;18.90;99.90
37356;DHT22;48747;50.250;18.848;2023-07-30T05:15:47;18.90;99.90
37356;DHT22;48747;50.250;18.848;2023-07-30T05:17:50;19.00;99.90
37356;DHT22;48747;50.250;18.848;2023-07-30T05:19:53;19.00;99.90
37356;DHT22;48747;50.250;18.848;2023-07-30T05:21:56;19.00;99.90
37356;DHT22;48747;50.250;18.848;2023-07-30T05:24:01;19.00;99.90
37356;DHT22;48747;50.250;18.848;2023-07-30T05:26:04;19.10;99.90
37356;DHT22;48747;50.250;18.848;2023-07-30T05:28:07;19.20;99.90
37356;DHT22;48747;50.250;18.848;2023-07-30T05:30:11;19.20;99.90
37356;DHT22;48747;50.250;18.848;2023-07-30T05:32:14;19.30;99.90
37356;DHT22;48747;50.250;18.848;2023-07-30T05:34:17;19.30;99.90
37356;DHT22;48747;50.250;18.848;2023-07-30T05:36:20;19.40;99.90
37356;DHT22;48747;50.250;18.848;2023-07-30T05:38:23;19.60;99.90
37356;DHT22;48747;50.250;18.848;2023-07-30T05:40:26;19.70;99.90
37356;DHT22;48747;50.250;18.848;2023-07-30T05:42:29;19.80;99.90
37356;DHT22;48747;50.250;18.848;2023-07-30T05:44:32;19.90;99.90
37356;DHT22;48747;50.250;18.848;2023-07-30T05:46:35;19.90;99.90
37356;DHT22;48747;50.250;18.848;2023-07-30T05:48:38;20.00;99.90
37356;DHT22;48747;50.250;18.848;2023-07-30T05:50:41;20.10;99.90
37356;DHT22;48747;50.250;18.848;2023-07-30T05:52:45;20.10;99.90
37356;DHT22;48747;50.250;18.848;2023-07-30T05:54:48;20.20;99.90
37356;DHT22;48747;50.250;18.848;2023-07-30T05:56:51;20.30;99.90
37356;DHT22;48747;50.250;18.848;2023-07-30T05:58:55;20.30;99.90
37356;DHT22;48747;50.250;18.848;2023-07-30T06:00:58;20.40;99.90
37356;DHT22;48747;50.250;18.848;2023-07-30T06:03:01;20.50;99.90
37356;DHT22;48747;50.250;18.848;2023-07-30T06:05:05;20.60;99.90
37356;DHT22;48747;50.250;18.848;2023-07-30T06:07:08;20.70;99.90
37356;DHT22;48747;50.250;18.848;2023-07-30T06:09:11;20.80;99.90
37356;DHT22;48747;50.250;18.848;2023-07-30T06:11:14;21.00;99.90
37356;DHT22;48747;50.250;18.848;2023-07-30T06:13:17;21.20;99.90
37356;DHT22;48747;50.250;18.848;2023-07-30T06:15:20;21.30;99.90
37356;DHT22;48747;50.250;18.848;2023-07-30T06:17:23;21.50;99.90
37356;DHT22;48747;50.250;18.848;2023-07-30T06:19:27;21.60;99.90
37356;DHT22;48747;50.250;18.848;2023-07-30T06:21:30;21.60;99.90
37356;DHT22;48747;50.250;18.848;2023-07-30T06:23:33;21.60;99.90
37356;DHT22;48747;50.250;18.848;2023-07-30T06:25:36;21.50;99.90
37356;DHT22;48747;50.250;18.848;2023-07-30T06:27:39;21.50;99.90
37356;DHT22;48747;50.250;18.848;2023-07-30T06:29:42;21.60;99.90
37356;DHT22;48747;50.250;18.848;2023-07-30T06:31:45;21.60;99.90
37356;DHT22;48747;50.250;18.848;2023-07-30T06:33:48;21.70;99.90
37356;DHT22;48747;50.250;18.848;2023-07-30T06:35:51;21.70;99.90
37356;DHT22;48747;50.250;18.848;2023-07-30T06:37:54;21.80;99.90
37356;DHT22;48747;50.250;18.848;2023-07-30T06:39:57;21.80;99.90
37356;DHT22;48747;50.250;18.848;2023-07-30T06:42:01;21.90;99.90
37356;DHT22;48747;50.250;18.848;2023-07-30T06:44:04;21.90;99.90
37356;DHT22;48747;50.250;18.848;2023-07-30T06:46:07;22.00;99.90
37356;DHT22;48747;50.250;18.848;2023-07-30T06:48:10;22.00;99.90
37356;DHT22;48747;50.250;18.848;2023-07-30T06:50:13;22.10;99.90
37356;DHT22;48747;50.250;18.848;2023-07-30T06:52:16;22.10;99.90
37356;DHT22;48747;50.250;18.848;2023-07-30T06:54:20;22.10;99.90
37356;DHT22;48747;50.250;18.848;2023-07-30T06:56:23;22.20;99.90
37356;DHT22;48747;50.250;18.848;2023-07-30T06:58:26;22.40;99.90
37356;DHT22;48747;50.250;18.848;2023-07-30T07:00:29;22.30;99.90
37356;DHT22;48747;50.250;18.848;2023-07-30T07:02:32;22.30;99.90
37356;DHT22;48747;50.250;18.848;2023-07-30T07:04:35;22.20;99.90
37356;DHT22;48747;50.250;18.848;2023-07-30T07:06:38;22.30;99.90
37356;DHT22;48747;50.250;18.848;2023-07-30T07:08:41;22.40;99.90
37356;DHT22;48747;50.250;18.848;2023-07-30T07:10:45;22.50;99.90
37356;DHT22;48747;50.250;18.848;2023-07-30T07:12:48;22.50;99.90
37356;DHT22;48747;50.250;18.848;2023-07-30T07:14:51;22.40;99.90
37356;DHT22;48747;50.250;18.848;2023-07-30T07:16:55;22.40;99.90
37356;DHT22;48747;50.250;18.848;2023-07-30T07:18:58;22.40;99.90
37356;DHT22;48747;50.250;18.848;2023-07-30T07:21:01;22.40;99.90
37356;DHT22;48747;50.250;18.848;2023-07-30T07:23:04;22.50;99.90
37356;DHT22;48747;50.250;18.848;2023-07-30T07:25:08;22.60;99.90
37356;DHT22;48747;50.250;18.848;2023-07-30T07:27:11;22.70;99.90
37356;DHT22;48747;50.250;18.848;2023-07-30T07:29:14;22.80;99.90
37356;DHT22;48747;50.250;18.848;2023-07-30T07:31:17;22.90;99.90
37356;DHT22;48747;50.250;18.848;2023-07-30T07:33:20;22.90;99.90
37356;DHT22;48747;50.250;18.848;2023-07-30T07:35:23;23.00;99.90
37356;DHT22;48747;50.250;18.848;2023-07-30T07:37:26;23.10;99.90
37356;DHT22;48747;50.250;18.848;2023-07-30T07:39:29;23.20;99.90
37356;DHT22;48747;50.250;18.848;2023-07-30T07:41:32;23.20;99.90
37356;DHT22;48747;50.250;18.848;2023-07-30T07:43:35;23.20;99.90
37356;DHT22;48747;50.250;18.848;2023-07-30T07:45:38;23.10;99.90
37356;DHT22;48747;50.250;18.848;2023-07-30T07:47:41;23.10;99.90
37356;DHT22;48747;50.250;18.848;2023-07-30T07:49:44;23.10;99.90
37356;DHT22;48747;50.250;18.848;2023-07-30T07:51:47;23.00;99.90
37356;DHT22;48747;50.250;18.848;2023-07-30T07:53:50;22.90;99.90
37356;DHT22;48747;50.250;18.848;2023-07-30T07:55:54;22.80;99.90
37356;DHT22;48747;50.250;18.848;2023-07-30T07:57:57;22.80;99.90
37356;DHT22;48747;50.250;18.848;2023-07-30T08:00:00;22.80;99.90
37356;DHT22;48747;50.250;18.848;2023-07-30T08:02:03;22.80;99.90
37356;DHT22;48747;50.250;18.848;2023-07-30T08:04:06;22.80;99.90
37356;DHT22;48747;50.250;18.848;2023-07-30T08:06:09;22.80;99.90
37356;DHT22;48747;50.250;18.848;2023-07-30T08:08:12;22.90;99.90
37356;DHT22;48747;50.250;18.848;2023-07-30T08:10:16;22.90;99.90
37356;DHT22;48747;50.250;18.848;2023-07-30T08:12:20;23.00;99.90
37356;DHT22;48747;50.250;18.848;2023-07-30T08:14:23;23.10;99.90
37356;DHT22;48747;50.250;18.848;2023-07-30T08:16:27;23.20;99.90
37356;DHT22;48747;50.250;18.848;2023-07-30T08:18:30;23.40;99.90
37356;DHT22;48747;50.250;18.848;2023-07-30T08:20:33;23.40;99.90
37356;DHT22;48747;50.250;18.848;2023-07-30T08:22:36;23.40;99.90
37356;DHT22;48747;50.250;18.848;2023-07-30T08:24:39;23.60;99.90
37356;DHT22;48747;50.250;18.848;2023-07-30T08:26:42;23.70;99.90
37356;DHT22;48747;50.250;18.848;2023-07-30T08:28:45;23.80;99.90
37356;DHT22;48747;50.250;18.848;2023-07-30T08:30:48;23.90;99.90
37356;DHT22;48747;50.250;18.848;2023-07-30T08:32:51;24.00;99.90
37356;DHT22;48747;50.250;18.848;2023-07-30T08:34:54;24.10;99.90
37356;DHT22;48747;50.250;18.848;2023-07-30T08:36:57;24.20;99.90
37356;DHT22;48747;50.250;18.848;2023-07-30T08:39:01;24.40;99.90
37356;DHT22;48747;50.250;18.848;2023-07-30T08:41:06;24.40;99.90
37356;DHT22;48747;50.250;18.848;2023-07-30T08:43:09;24.50;99.90
37356;DHT22;48747;50.250;18.848;2023-07-30T08:45:12;24.50;99.90
37356;DHT22;48747;50.250;18.848;2023-07-30T08:47:15;24.70;99.90
37356;DHT22;48747;50.250;18.848;2023-07-30T08:49:18;24.80;99.90
37356;DHT22;48747;50.250;18.848;2023-07-30T08:51:22;24.80;99.90
37356;DHT22;48747;50.250;18.848;2023-07-30T08:53:26;24.90;99.90
37356;DHT22;48747;50.250;18.848;2023-07-30T08:55:32;24.90;96.40
37356;DHT22;48747;50.250;18.848;2023-07-30T08:57:37;25.00;98.10
37356;DHT22;48747;50.250;18.848;2023-07-30T08:59:45;25.00;95.80
37356;DHT22;48747;50.250;18.848;2023-07-30T09:01:48;25.00;95.20
37356;DHT22;48747;50.250;18.848;2023-07-30T09:03:53;25.10;95.40
37356;DHT22;48747;50.250;18.848;2023-07-30T09:05:56;25.10;94.90
37356;DHT22;48747;50.250;18.848;2023-07-30T09:07:59;25.10;95.40
37356;DHT22;48747;50.250;18.848;2023-07-30T09:10:02;25.10;93.00
37356;DHT22;48747;50.250;18.848;2023-07-30T09:12:12;25.10;93.80
37356;DHT22;48747;50.250;18.848;2023-07-30T09:14:13;25.00;93.00
37356;DHT22;48747;50.250;18.848;2023-07-30T09:16:16;25.20;91.70
37356;DHT22;48747;50.250;18.848;2023-07-30T09:18:19;25.30;94.00
37356;DHT22;48747;50.250;18.848;2023-07-30T09:20:22;25.50;93.20
37356;DHT22;48747;50.250;18.848;2023-07-30T09:22:30;25.50;92.50
37356;DHT22;48747;50.250;18.848;2023-07-30T09:24:34;25.70;92.80
37356;DHT22;48747;50.250;18.848;2023-07-30T09:26:48;25.70;93.00
37356;DHT22;48747;50.250;18.848;2023-07-30T09:40:56;25.70;88.60
37356;DHT22;48747;50.250;18.848;2023-07-30T09:42:56;25.90;89.20
37356;DHT22;48747;50.250;18.848;2023-07-30T09:45:00;26.10;87.50
37356;DHT22;48747;50.250;18.848;2023-07-30T09:47:03;26.20;90.30
37356;DHT22;48747;50.250;18.848;2023-07-30T09:49:08;26.30;83.90
37356;DHT22;48747;50.250;18.848;2023-07-30T09:51:11;26.30;85.30
37356;DHT22;48747;50.250;18.848;2023-07-30T09:53:15;26.30;81.80
37356;DHT22;48747;50.250;18.848;2023-07-30T09:55:19;26.30;84.80
37356;DHT22;48747;50.250;18.848;2023-07-30T09:57:23;26.30;82.50
37356;DHT22;48747;50.250;18.848;2023-07-30T09:59:26;26.30;85.10
37356;DHT22;48747;50.250;18.848;2023-07-30T10:01:30;26.20;75.90
37356;DHT22;48747;50.250;18.848;2023-07-30T10:03:35;26.20;80.50
37356;DHT22;48747;50.250;18.848;2023-07-30T10:05:39;26.20;83.40
37356;DHT22;48747;50.250;18.848;2023-07-30T10:07:53;26.30;79.00
37356;DHT22;48747;50.250;18.848;2023-07-30T10:09:58;26.20;76.60
37356;DHT22;48747;50.250;18.848;2023-07-30T10:12:03;26.30;78.30
37356;DHT22;48747;50.250;18.848;2023-07-30T10:14:07;26.20;78.90
37356;DHT22;48747;50.250;18.848;2023-07-30T10:16:11;26.20;80.00
37356;DHT22;48747;50.250;18.848;2023-07-30T10:18:14;26.20;79.30
37356;DHT22;48747;50.250;18.848;2023-07-30T10:20:25;26.20;81.20
37356;DHT22;48747;50.250;18.848;2023-07-30T10:22:28;26.40;83.40
37356;DHT22;48747;50.250;18.848;2023-07-30T10:24:31;26.40;81.00
37356;DHT22;48747;50.250;18.848;2023-07-30T10:26:35;26.50;82.70
37356;DHT22;48747;50.250;18.848;2023-07-30T10:28:39;26.70;83.80
37356;DHT22;48747;50.250;18.848;2023-07-30T10:30:45;26.80;81.80
37356;DHT22;48747;50.250;18.848;2023-07-30T10:32:58;26.70;80.60
37356;DHT22;48747;50.250;18.848;2023-07-30T10:35:02;26.70;81.80
37356;DHT22;48747;50.250;18.848;2023-07-30T10:37:05;26.80;81.50
37356;DHT22;48747;50.250;18.848;2023-07-30T10:39:15;26.80;79.80
37356;DHT22;48747;50.250;18.848;2023-07-30T10:41:20;26.80;81.00
37356;DHT22;48747;50.250;18.848;2023-07-30T10:43:27;26.80;78.90
37356;DHT22;48747;50.250;18.848;2023-07-30T10:45:29;26.80;78.60
37356;DHT22;48747;50.250;18.848;2023-07-30T10:47:35;26.90;80.80
37356;DHT22;48747;50.250;18.848;2023-07-30T10:49:41;26.90;78.00
37356;DHT22;48747;50.250;18.848;2023-07-30T10:51:46;27.00;75.10
37356;DHT22;48747;50.250;18.848;2023-07-30T10:53:50;27.10;77.10
37356;DHT22;48747;50.250;18.848;2023-07-30T10:55:53;27.20;75.80
37356;DHT22;48747;50.250;18.848;2023-07-30T10:57:57;27.20;74.00
37356;DHT22;48747;50.250;18.848;2023-07-30T11:00:03;27.10;74.50
37356;DHT22;48747;50.250;18.848;2023-07-30T11:02:06;27.20;75.40
37356;DHT22;48747;50.250;18.848;2023-07-30T11:04:13;27.30;76.80
37356;DHT22;48747;50.250;18.848;2023-07-30T11:06:24;27.50;76.40
37356;DHT22;48747;50.250;18.848;2023-07-30T11:08:41;27.50;73.80
37356;DHT22;48747;50.250;18.848;2023-07-30T11:10:47;27.50;74.00
37356;DHT22;48747;50.250;18.848;2023-07-30T11:12:51;27.40;72.10
37356;DHT22;48747;50.250;18.848;2023-07-30T11:15:07;27.20;72.40
37356;DHT22;48747;50.250;18.848;2023-07-30T11:17:06;27.10;73.10
37356;DHT22;48747;50.250;18.848;2023-07-30T11:19:09;27.10;74.30
37356;DHT22;48747;50.250;18.848;2023-07-30T11:21:15;27.10;75.50
37356;DHT22;48747;50.250;18.848;2023-07-30T11:23:22;27.20;74.00
37356;DHT22;48747;50.250;18.848;2023-07-30T11:25:25;27.10;73.00
37356;DHT22;48747;50.250;18.848;2023-07-30T11:27:28;27.00;73.30
37356;DHT22;48747;50.250;18.848;2023-07-30T11:29:31;26.80;73.30
37356;DHT22;48747;50.250;18.848;2023-07-30T11:31:34;26.80;73.30
37356;DHT22;48747;50.250;18.848;2023-07-30T11:33:40;26.70;73.20
37356;DHT22;48747;50.250;18.848;2023-07-30T11:35:44;26.60;74.10
37356;DHT22;48747;50.250;18.848;2023-07-30T11:37:48;26.60;72.80
37356;DHT22;48747;50.250;18.848;2023-07-30T11:39:51;26.50;72.50
37356;DHT22;48747;50.250;18.848;2023-07-30T11:41:54;26.40;75.00
37356;DHT22;48747;50.250;18.848;2023-07-30T11:43:57;26.50;76.10
37356;DHT22;48747;50.250;18.848;2023-07-30T11:46:15;26.50;73.70
37356;DHT22;48747;50.250;18.848;2023-07-30T11:48:23;26.50;73.00
37356;DHT22;48747;50.250;18.848;2023-07-30T11:50:25;26.40;72.30
37356;DHT22;48747;50.250;18.848;2023-07-30T11:52:28;26.40;71.90
37356;DHT22;48747;50.250;18.848;2023-07-30T11:54:31;26.50;73.10
37356;DHT22;48747;50.250;18.848;2023-07-30T11:56:34;26.40;71.10
37356;DHT22;48747;50.250;18.848;2023-07-30T11:58:37;26.40;72.70
37356;DHT22;48747;50.250;18.848;2023-07-30T12:00:42;26.40;73.60
37356;DHT22;48747;50.250;18.848;2023-07-30T12:02:46;26.20;73.30
37356;DHT22;48747;50.250;18.848;2023-07-30T12:04:49;26.20;74.30
37356;DHT22;48747;50.250;18.848;2023-07-30T12:06:53;26.20;73.50
37356;DHT22;48747;50.250;18.848;2023-07-30T12:08:56;26.20;74.70
37356;DHT22;48747;50.250;18.848;2023-07-30T12:11:07;26.30;73.10
37356;DHT22;48747;50.250;18.848;2023-07-30T12:13:15;26.40;72.30
37356;DHT22;48747;50.250;18.848;2023-07-30T12:15:19;26.40;72.20
37356;DHT22;48747;50.250;18.848;2023-07-30T12:17:22;26.50;72.80
37356;DHT22;48747;50.250;18.848;2023-07-30T12:19:25;26.60;71.60
37356;DHT22;48747;50.250;18.848;2023-07-30T12:21:28;26.50;72.70
37356;DHT22;48747;50.250;18.848;2023-07-30T12:23:31;26.50;72.80
37356;DHT22;48747;50.250;18.848;2023-07-30T12:25:34;26.70;72.70
37356;DHT22;48747;50.250;18.848;2023-07-30T12:27:37;26.80;71.60
37356;DHT22;48747;50.250;18.848;2023-07-30T12:29:40;26.90;71.00
37356;DHT22;48747;50.250;18.848;2023-07-30T12:31:44;27.00;71.60
37356;DHT22;48747;50.250;18.848;2023-07-30T12:33:48;27.00;71.30
37356;DHT22;48747;50.250;18.848;2023-07-30T12:35:51;27.00;72.50
37356;DHT22;48747;50.250;18.848;2023-07-30T12:37:55;27.00;72.90
37356;DHT22;48747;50.250;18.848;2023-07-30T12:39:58;26.90;74.60
37356;DHT22;48747;50.250;18.848;2023-07-30T12:42:01;26.90;76.30
37356;DHT22;48747;50.250;18.848;2023-07-30T12:44:04;26.90;74.60
37356;DHT22;48747;50.250;18.848;2023-07-30T12:46:07;26.90;75.40
37356;DHT22;48747;50.250;18.848;2023-07-30T12:48:10;27.00;75.60
37356;DHT22;48747;50.250;18.848;2023-07-30T12:50:13;27.00;74.70
37356;DHT22;48747;50.250;18.848;2023-07-30T12:52:16;27.10;74.10
37356;DHT22;48747;50.250;18.848;2023-07-30T12:54:19;27.10;72.70
37356;DHT22;48747;50.250;18.848;2023-07-30T12:56:22;27.10;72.90
37356;DHT22;48747;50.250;18.848;2023-07-30T12:58:25;27.00;73.20
37356;DHT22;48747;50.250;18.848;2023-07-30T13:00:29;26.80;71.70
37356;DHT22;48747;50.250;18.848;2023-07-30T13:02:31;26.80;72.50